• Join FlightAware (Why Join?)
  • Login
  • US Flag 
06:38AM EDT


 

Airport Tracker/Info


-or-


 

Live Flight TrackerFlight Track Log ✈ SWA253 ✈ 20-Apr-2013 ✈ KMCO - KALB

Flight Track Log - Related Links

Times and Time Zones

All times are in EDT time to prevent confusion due to time zone crossing. See the SWA253 flight status page for this flight to view local times or setup timezone preferences in your user account.

Time Position Orientation Groundspeed Altitude Reporting Facility
EDT Latitude Longitude Course Direction KTS MPH feet Rate Location/Type
09:51PM 28.4333 -81.3000 24° Northeast 154 177 600  Level Orlando TRACON
09:52PM 28.5000 -81.2667 24° Northeast 214 246 3,000 1,980 Climbing Orlando TRACON
09:53PM 28.5667 -81.2500 12° North 288 331 5,000 2,820 Climbing Orlando TRACON
09:54PM 28.6333 -81.2667 348° North 289 333 8,700 3,000 Climbing Orlando TRACON
09:56PM 28.7536 -81.3058 344° North 315 362 12,600 2,820 Climbing Jacksonville Center
09:57PM 28.8500 -81.3281 349° North 327 376 15,900 2,940 Climbing Jacksonville Center
09:58PM 28.9483 -81.3525 348° North 349 402 18,500 2,460 Climbing Jacksonville Center
09:59PM 29.0572 -81.3794 348° North 371 427 20,900 2,340 Climbing Jacksonville Center
10:00PM 29.1700 -81.3992 351° North 393 452 23,200 2,340 Climbing Jacksonville Center
10:01PM 29.2872 -81.4092 356° North 412 474 25,600 2,100 Climbing Jacksonville Center
10:02PM 29.4106 -81.4217 355° North 429 494 27,400 1,740 Climbing Jacksonville Center
10:03PM 29.5525 -81.4361 355° North 451 519 29,100 1,500 Climbing Jacksonville Center
10:04PM 29.6864 -81.4486 355° North 468 539 30,500 1,500 Climbing Jacksonville Center
10:05PM 29.8222 -81.4608 356° North 479 551 32,200 1,560 Climbing Jacksonville Center
10:06PM 29.9581 -81.4758 355° North 479 551 33,700 1,560 Climbing Jacksonville Center
10:07PM 30.0958 -81.4881 356° North 479 551 35,400 1,380 Climbing Jacksonville Center
10:08PM 30.2317 -81.4981 356° North 479 551 36,500 1,200 Climbing Jacksonville Center
10:09PM 30.3717 -81.5058 357° North 485 558 37,800 1,200 Climbing Jacksonville Center
10:10PM 30.5094 -81.4964 North 491 565 39,000 600 Climbing Jacksonville Center
10:11PM 30.6425 -81.4558 15° North 498 573 39,000  Level Jacksonville Center
10:12PM 30.7756 -81.3911 23° Northeast 498 573 39,000  Level Jacksonville Center
10:13PM 30.9064 -81.3283 22° Northeast 503 579 39,000  Level Jacksonville Center
10:14PM 31.0411 -81.2656 22° Northeast 513 590 39,000  Level Jacksonville Center
10:15PM 31.1739 -81.1978 24° Northeast 513 590 39,000  Level Jacksonville Center
10:16PM 31.3067 -81.1344 22° Northeast 510 587 39,000  Level Jacksonville Center
10:17PM 31.4372 -81.0689 23° Northeast 515 593 39,000  Level Jacksonville Center
10:18PM 31.5719 -81.0053 22° Northeast 515 593 39,000  Level Jacksonville Center
10:19PM 31.6861 -80.9467 24° Northeast 515 593 39,000  Level Jacksonville Center
10:20PM 31.8353 -80.8750 22° Northeast 515 593 39,000  Level Jacksonville Center
10:21PM 31.9553 -80.8186 22° Northeast 515 593 39,000  Level Jacksonville Center
10:22PM 32.1003 -80.7467 23° Northeast 515 593 39,000  Level Jacksonville Center
10:23PM 32.2183 -80.6850 24° Northeast 515 593 39,000  Level Jacksonville Center
10:24PM 32.3528 -80.6178 23° Northeast 515 593 39,000  Level Jacksonville Center
10:25PM 32.4872 -80.5528 22° Northeast 515 593 39,000  Level Jacksonville Center
10:26PM 32.6197 -80.4853 23° Northeast 515 593 39,000  Level Jacksonville Center
10:27PM 32.7500 -80.4200 23° Northeast 510 587 39,000  Level Jacksonville Center
10:28PM 32.8822 -80.3547 23° Northeast 510 587 39,000  Level Jacksonville Center
10:29PM 33.0164 -80.2864 23° Northeast 517 595 39,000  Level Jacksonville Center
10:30PM 33.1486 -80.2181 23° Northeast 512 589 39,000  Level Jacksonville Center
10:31PM 33.2931 -80.1467 22° Northeast 512 589 39,000  Level Jacksonville Center
10:32PM 33.4211 -80.0806 23° Northeast 505 581 39,000  Level Jacksonville Center
10:33PM 33.5511 -80.0117 24° Northeast 505 581 39,000  Level Jacksonville Center
10:34PM 33.6808 -79.9450 23° Northeast 505 581 39,000  Level Jacksonville Center
10:35PM 33.8108 -79.8781 23° Northeast 505 581 39,000  Level Jacksonville Center
10:37PM 34.0981 -79.7297 23° Northeast 508 585 39,000  Level Washington Center
10:38PM 34.2469 -79.6492 24° Northeast 508 585 39,000  Level Washington Center
10:39PM 34.3692 -79.5547 33° Northeast 515 593 39,000  Level Washington Center
10:40PM 34.4911 -79.4597 33° Northeast 520 598 39,000  Level Washington Center
10:41PM 34.6153 -79.3622 33° Northeast 520 598 39,000  Level Washington Center
10:42PM 34.7392 -79.2669 32° Northeast 520 598 39,000  Level Washington Center
10:43PM 34.8631 -79.1711 32° Northeast 520 598 39,000  Level Washington Center
10:44PM 34.9850 -79.0753 33° Northeast 520 598 39,000  Level Washington Center
10:45PM 35.1044 -78.9814 33° Northeast 515 593 39,000  Level Washington Center
10:46PM 35.2261 -78.8872 32° Northeast 515 593 39,000  Level Washington Center
10:47PM 35.3453 -78.7953 32° Northeast 515 593 39,000  Level Washington Center
10:48PM 35.4669 -78.6956 34° Northeast 520 598 39,000  Level Washington Center
10:49PM 35.5778 -78.6081 33° Northeast 520 598 39,000  Level Washington Center
10:50PM 35.7031 -78.5131 32° Northeast 525 604 39,000  Level Washington Center
10:51PM 35.8222 -78.4175 33° Northeast 520 598 39,000  Level Washington Center
10:52PM 35.9414 -78.3192 34° Northeast 514 592 39,000  Level Washington Center
10:53PM 36.0667 -78.2208 32° Northeast 514 592 39,000  Level Washington Center
10:54PM 36.1878 -78.1217 33° Northeast 514 592 39,000  Level Washington Center
10:55PM 36.3089 -78.0225 33° Northeast 514 592 39,000  Level Washington Center
10:56PM 36.4275 -77.9206 35° Northeast 514 592 39,000  Level Washington Center
10:57PM 36.5506 -77.8208 33° Northeast 514 592 39,000  Level Washington Center
10:58PM 36.6753 -77.7233 32° Northeast 519 597 39,000  Level Washington Center
10:59PM 36.7983 -77.6203 34° Northeast 519 597 39,000  Level Washington Center
11:00PM 36.9189 -77.5169 34° Northeast 519 597 39,000  Level Washington Center
11:01PM 37.0414 -77.4158 33° Northeast 519 597 39,000  Level Washington Center
11:02PM 37.1639 -77.3144 33° Northeast 519 597 39,000  Level Washington Center
11:03PM 37.2864 -77.2156 33° Northeast 519 597 39,000  Level Washington Center
11:04PM 37.4256 -77.0956 34° Northeast 531 611 39,000  Level Washington Center
11:05PM 37.5414 -77.0008 33° Northeast 538 619 39,000  Level Washington Center
11:06PM 37.6614 -76.8956 35° Northeast 538 619 39,000  Level Washington Center
11:07PM 37.7836 -76.7900 34° Northeast 538 619 39,000 -240 Level Washington Center
11:08PM 37.9097 -76.6839 34° Northeast 543 625 38,600 -660 Descending Washington Center
11:09PM 38.0314 -76.5778 34° Northeast 538 619 37,700 -960 Descending Washington Center
11:10PM 38.1553 -76.4711 34° Northeast 538 619 36,700 -960 Descending Washington Center
11:11PM 38.2833 -76.3589 35° Northeast 543 625 35,800 -900 Descending Washington Center
11:12PM 38.4236 -76.2411 33° Northeast 543 625 35,000 -420 Descending Washington Center
11:13PM 38.5431 -76.1306 36° Northeast 560 644 35,000 -420 Level Washington Center
11:14PM 38.6728 -76.0278 32° Northeast 565 650 34,200 -900 Descending Washington Center
11:15PM 38.7942 -75.9167 35° Northeast 549 632 33,200 -600 Descending Washington Center
11:16PM 38.9153 -75.8050 36° Northeast 539 620 33,000 -120 Descending Washington Center
11:17PM 39.0383 -75.7011 33° Northeast 539 620 33,000  Level Washington Center
11:18PM 39.1614 -75.5889 35° Northeast 539 620 33,000  Level Washington Center
11:20PM 39.4522 -75.3281 35° Northeast 535 616 33,000  Level New York Center
11:22PM 39.5753 -75.2178 35° Northeast 535 616 33,000  Level New York Center
11:22PM 39.6744 -75.1267 35° Northeast 535 616 33,000  Level New York Center
11:23PM 39.8061 -75.0025 36° Northeast 535 616 33,000  Level New York Center
11:24PM 39.9292 -74.8856 36° Northeast 540 621 33,000  Level New York Center
11:25PM 40.0408 -74.7322 46° Northeast 528 608 33,000  Level New York Center
11:26PM 40.1414 -74.5886 47° Northeast 535 616 33,000  Level New York Center
11:27PM 40.2372 -74.4578 46° Northeast 541 623 33,000  Level New York Center
11:28PM 40.3536 -74.3333 39° Northeast 535 616 33,000  Level New York Center
11:29PM 40.4678 -74.2111 39° Northeast 535 616 33,000  Level New York Center
11:31PM 40.6978 -74.1181 17° North 501 577 33,000  Level Boston Center
11:32PM 40.8606 -74.1031 North 540 621 33,000 -900 Level Boston Center
11:33PM 41.0067 -74.0767 North 533 613 31,200 -2,100 Descending Boston Center
11:34PM 41.1531 -74.0556 North 528 608 28,800 -2,340 Descending Boston Center
11:35PM 41.2908 -74.0342 North 516 594 26,600 -1,500 Descending Boston Center
11:36PM 41.4203 -74.0125 North 498 573 25,900 -1,500 Descending Boston Center
11:37PM 41.5394 -73.9931 North 462 532 23,600 -2,400 Descending Boston Center
11:38PM 41.6606 -73.9739 North 439 505 21,200 -2,400 Descending Boston Center
11:39PM 41.7775 -73.9600 North 439 505 18,800 -2,400 Descending Boston Center
11:40PM 41.8256 -73.9528 North 429 494 17,800 -2,040 Descending Boston Center
11:40PM 41.8922 -73.9406 North 418 481 16,800 -2,100 Descending Boston Center
11:41PM 41.9528 -73.9336 North 417 480 15,500 -2,700 Descending Boston Center
11:41PM 42.0050 -73.9236 North 411 473 14,100 -2,640 Descending Boston Center
11:42PM 42.0636 -73.9139 North 398 458 12,900 -2,100 Descending Boston Center
11:42PM 42.1033 -73.9008 14° North 406 467 12,000 -2,100 Descending Boston Center
11:43PM 42.1681 -73.8856 10° North 375 432 10,800 -1,740 Descending Boston Center
11:43PM 42.2100 -73.8753 10° North 371 427 10,300 -1,020 Descending Boston Center
11:44PM 42.2581 -73.8678 North 309 356 9,800 -1,020 Descending Boston Center
11:44PM 42.2853 -73.8600 12° North 321 369 9,300 -1,620 Descending Boston Center
11:45PM 42.3353 -73.8528 North 272 313 8,200 -1,920 Descending Boston Center
11:45PM 42.3708 -73.8397 15° North 285 328 7,400 -1,680 Descending Boston Center
11:46PM 42.4106 -73.8319 North 269 310 6,500 -1,500 Descending Boston Center
11:46PM 42.4358 -73.8242 13° North 267 307 5,900 -1,680 Descending Boston Center
11:47PM 42.4858 -73.8169 North 254 292 4,800 -1,440 Descending Boston Center
11:47PM 42.5108 -73.8089 13° North 252 290 4,500 -840 Descending Boston Center
11:48PM 42.5506 -73.8014 North 224 258 4,000 -840 Descending Boston Center
11:48PM 42.5631 -73.7989 North 228 262 3,700 -1,020 Descending Boston Center
11:49PM 42.5986 -73.8025 356° North 163 188 3,000 -900 Descending Boston Center
11:49PM 42.6111 -73.8000 North 189 217 2,800 -720 Descending Boston Center
11:50PM 42.6403 -73.8006 359° North 131 151 2,300 -420 Descending Boston Center
11:50PM 42.6631 -73.8008 359° North 169 194 2,400 -840 Climbing Boston Center
11:51PM 42.6778 -73.8042 351° North 137 158 1,500 -1,020 Descending Boston Center
11:52PM 42.7131 -73.8078 356° North 132 152 800 -720 Descending Boston Center